Aviation Digital Data Service (ADDS)

Output produced by METARs form (0643 UTC 25 July 2014)
found at http://aviationweather.gov/adds/metars/
 
KJFK 250529Z 2506/2612 01008KT P6SM SCT070 BKN250 
     FM251700 19011KT P6SM FEW050 
     FM260300 21008KT P6SM FEW250